Time;durP1;ratioP1;P1;durP2;ratioP2;P2;SDS_P1;SDS_P2;PMS_P1;PMS_P2;Temp;Humidity;BMP_temperature;BMP_pressure;BME280_temperature;BME280_humidity;BME280_pressure;Samples;Min_cycle;Max_cycle;Signal;HPM_P1;HPM_P2
2021/05/04 00:00:48;;;;;;;2.85;0.68;;;13.10;50.60;;;;;;5064032;28;20201;-68
2021/05/04 00:03:13;;;;;;;8.23;0.93;;;13.10;50.50;;;;;;4983236;28;20541;-68
2021/05/04 00:05:40;;;;;;;3.35;0.80;;;13.10;50.80;;;;;;5033670;28;20084;-68
2021/05/04 00:08:06;;;;;;;4.03;0.73;;;13.10;51.00;;;;;;5008873;28;20393;-67
2021/05/04 00:10:31;;;;;;;5.03;0.70;;;13.10;51.10;;;;;;5041622;28;20032;-68
2021/05/04 00:12:57;;;;;;;7.30;0.80;;;13.10;51.80;;;;;;5017900;28;20030;-68
2021/05/04 00:15:22;;;;;;;6.28;0.65;;;13.10;52.20;;;;;;4989892;28;20042;-69
2021/05/04 00:17:48;;;;;;;10.02;0.90;;;13.00;53.80;;;;;;5024617;28;20081;-68
2021/05/04 00:20:13;;;;;;;7.25;0.68;;;12.80;55.20;;;;;;5063438;28;20466;-69
2021/05/04 00:22:39;;;;;;;3.15;0.70;;;12.60;56.10;;;;;;5030967;28;20109;-68
2021/05/04 00:25:05;;;;;;;3.92;0.80;;;12.50;56.70;;;;;;4989849;28;20022;-69
2021/05/04 00:27:30;;;;;;;2.53;0.77;;;12.40;57.60;;;;;;4996783;28;20035;-69
2021/05/04 00:29:56;;;;;;;1.70;0.55;;;12.30;58.10;;;;;;4998493;28;20026;-69
2021/05/04 00:32:22;;;;;;;3.40;0.80;;;12.20;59.00;;;;;;5001396;28;20035;-69
2021/05/04 00:34:47;;;;;;;6.85;0.77;;;12.20;60.20;;;;;;4998174;28;20100;-68
2021/05/04 00:37:13;;;;;;;5.60;0.93;;;12.00;60.90;;;;;;4988818;28;20041;-69
2021/05/04 00:39:38;;;;;;;5.20;0.95;;;11.90;62.20;;;;;;4989147;28;20392;-69
2021/05/04 00:42:05;;;;;;;4.45;0.93;;;11.80;63.40;;;;;;5022006;28;20042;-69
2021/05/04 00:44:31;;;;;;;7.60;0.85;;;11.60;64.90;;;;;;5068159;28;20032;-69
2021/05/04 00:46:57;;;;;;;5.50;0.90;;;11.50;65.10;;;;;;5005049;28;20478;-69
2021/05/04 00:49:22;;;;;;;2.63;0.60;;;11.50;65.70;;;;;;4971714;28;20041;-68
2021/05/04 00:51:50;;;;;;;5.18;0.70;;;11.40;66.80;;;;;;4972521;28;20101;-68
2021/05/04 00:54:17;;;;;;;6.65;0.85;;;11.20;67.60;;;;;;5077183;28;20416;-68
2021/05/04 00:56:42;;;;;;;3.03;1.50;;;11.10;68.40;;;;;;4979535;28;20057;-68
2021/05/04 00:59:10;;;;;;;3.15;0.80;;;11.10;69.80;;;;;;4976128;28;20118;-68
2021/05/04 01:01:36;;;;;;;3.72;0.65;;;10.90;70.40;;;;;;4979291;28;20028;-68
2021/05/04 01:04:03;;;;;;;2.50;0.70;;;10.90;71.50;;;;;;4987661;28;20117;-68
2021/05/04 01:06:29;;;;;;;4.75;0.80;;;10.80;72.50;;;;;;5018954;28;20084;-68
2021/05/04 01:08:54;;;;;;;5.85;0.93;;;10.70;73.70;;;;;;4980369;28;20030;-68
2021/05/04 01:11:20;;;;;;;13.85;1.42;;;10.50;74.40;;;;;;5045516;28;20031;-71
2021/05/04 01:13:50;;;;;;;5.05;0.93;;;10.50;75.30;;;;;;5048439;28;20082;-69
2021/05/04 01:16:16;;;;;;;7.72;1.00;;;10.40;76.00;;;;;;5046791;28;20041;-69
2021/05/04 01:18:42;;;;;;;3.90;1.40;;;10.30;77.00;;;;;;4976556;28;20427;-68
2021/05/04 01:21:07;;;;;;;3.72;0.93;;;10.20;77.50;;;;;;4978322;28;20410;-69
2021/05/04 01:23:35;;;;;;;6.88;0.93;;;10.10;78.20;;;;;;5030778;28;20384;-69
2021/05/04 01:26:02;;;;;;;3.92;1.15;;;10.10;78.90;;;;;;5039262;28;20020;-67
2021/05/04 01:28:27;;;;;;;4.43;0.82;;;10.10;79.50;;;;;;5031022;28;20388;-68
2021/05/04 01:30:53;;;;;;;2.72;0.70;;;10.00;79.90;;;;;;5051982;28;20054;-68
2021/05/04 01:33:18;;;;;;;5.97;1.15;;;10.00;80.30;;;;;;4987633;28;20045;-68
2021/05/04 01:35:44;;;;;;;2.75;1.25;;;10.00;80.60;;;;;;5023344;28;20033;-68
2021/05/04 01:38:10;;;;;;;5.70;0.93;;;10.00;81.20;;;;;;5050960;28;20032;-68
2021/05/04 01:40:35;;;;;;;4.20;0.98;;;9.90;81.50;;;;;;5077781;28;20033;-68
2021/05/04 01:43:01;;;;;;;3.90;1.00;;;9.90;82.10;;;;;;5018304;28;20035;-67
2021/05/04 01:45:26;;;;;;;3.50;1.17;;;9.80;82.10;;;;;;5002266;28;20089;-68
2021/05/04 01:47:52;;;;;;;5.15;1.45;;;9.80;82.80;;;;;;5039176;28;20085;-68
2021/05/04 01:50:18;;;;;;;4.32;1.50;;;9.80;83.00;;;;;;4973562;28;20045;-68
2021/05/04 01:52:43;;;;;;;5.30;1.17;;;9.80;83.40;;;;;;5004760;28;20424;-68
2021/05/04 01:55:10;;;;;;;5.05;1.20;;;9.70;83.80;;;;;;5077006;28;20036;-67
2021/05/04 01:57:36;;;;;;;3.13;1.42;;;9.60;84.30;;;;;;5038000;28;20386;-67
2021/05/04 02:00:05;;;;;;;4.53;1.65;;;9.60;84.70;;;;;;4990228;28;20119;-67
2021/05/04 02:02:31;;;;;;;4.07;1.40;;;9.60;85.10;;;;;;4992320;28;20030;-68
2021/05/04 02:04:56;;;;;;;3.30;1.63;;;9.50;85.90;;;;;;5005798;28;20442;-68
2021/05/04 02:07:22;;;;;;;5.10;1.23;;;9.50;86.20;;;;;;4989635;28;20486;-67
2021/05/04 02:09:48;;;;;;;4.88;1.45;;;9.40;86.70;;;;;;4978788;28;20055;-68
2021/05/04 02:12:13;;;;;;;3.80;1.75;;;9.40;87.30;;;;;;4988350;28;20033;-67
2021/05/04 02:14:39;;;;;;;4.15;1.50;;;9.40;87.50;;;;;;5051410;28;20024;-68
2021/05/04 02:17:04;;;;;;;4.20;1.80;;;9.40;87.90;;;;;;5055278;28;20432;-67
2021/05/04 02:19:30;;;;;;;5.72;1.30;;;9.30;88.00;;;;;;4993468;28;20094;-67
2021/05/04 02:21:55;;;;;;;3.50;1.58;;;9.30;88.60;;;;;;4990931;28;20042;-67
2021/05/04 02:24:21;;;;;;;2.42;1.10;;;9.30;88.70;;;;;;5006734;28;20016;-68
2021/05/04 02:26:47;;;;;;;4.57;1.55;;;9.20;89.10;;;;;;5074792;28;20065;-68
2021/05/04 02:29:12;;;;;;;3.33;1.15;;;9.20;89.40;;;;;;5069500;28;20024;-68
2021/05/04 02:31:38;;;;;;;5.00;1.33;;;9.20;89.30;;;;;;4990800;28;20387;-68
2021/05/04 02:34:04;;;;;;;3.15;1.40;;;9.20;89.80;;;;;;5041945;28;20034;-67
2021/05/04 02:36:29;;;;;;;2.97;1.17;;;9.20;89.90;;;;;;4998360;28;20042;-68
2021/05/04 02:38:55;;;;;;;4.53;1.40;;;9.20;89.80;;;;;;5020509;28;20076;-68
2021/05/04 02:41:20;;;;;;;2.85;1.50;;;9.20;90.00;;;;;;4994989;28;20094;-67
2021/05/04 02:43:46;;;;;;;6.20;2.63;;;9.20;90.10;;;;;;5032983;28;20380;-67
2021/05/04 02:46:11;;;;;;;2.50;1.33;;;9.10;90.10;;;;;;4993951;28;20392;-67
2021/05/04 02:48:42;;;;;;;3.25;1.20;;;9.10;90.20;;;;;;5083827;28;20061;-68
2021/05/04 02:51:09;;;;;;;5.35;1.73;;;9.10;90.40;;;;;;5020915;28;20028;-68
2021/05/04 02:53:35;;;;;;;3.25;1.40;;;9.10;90.30;;;;;;5008915;28;20035;-68
2021/05/04 02:56:02;;;;;;;5.50;1.48;;;9.10;90.30;;;;;;4973003;28;20106;-67
2021/05/04 02:58:28;;;;;;;2.38;1.42;;;9.10;90.50;;;;;;5025457;28;20036;-67
2021/05/04 03:00:54;;;;;;;3.67;1.27;;;9.10;90.60;;;;;;5003609;28;20031;-68
2021/05/04 03:03:20;;;;;;;4.30;1.75;;;9.10;90.60;;;;;;5015179;28;20034;-68
2021/05/04 03:05:46;;;;;;;3.78;1.30;;;9.10;90.60;;;;;;4977035;28;20042;-68
2021/05/04 03:08:11;;;;;;;4.43;1.27;;;9.10;90.70;;;;;;4980942;28;20039;-68
2021/05/04 03:10:37;;;;;;;4.57;1.40;;;9.10;90.70;;;;;;5015439;28;20031;-68
2021/05/04 03:13:02;;;;;;;4.70;1.20;;;9.10;90.70;;;;;;4978184;28;20034;-68
2021/05/04 03:15:28;;;;;;;3.10;1.10;;;9.20;90.70;;;;;;4980762;28;20514;-68
2021/05/04 03:17:53;;;;;;;1.98;0.90;;;9.20;90.60;;;;;;5011570;28;20039;-68
2021/05/04 03:20:19;;;;;;;3.00;0.90;;;9.20;90.50;;;;;;5014501;28;20040;-69
2021/05/04 03:22:45;;;;;;;3.10;1.77;;;9.30;90.40;;;;;;5057262;28;20042;-69
2021/05/04 03:25:11;;;;;;;3.92;1.10;;;9.30;90.40;;;;;;5002289;28;20023;-69
2021/05/04 03:27:36;;;;;;;4.32;1.38;;;9.30;90.30;;;;;;4989091;28;20038;-69
2021/05/04 03:30:03;;;;;;;6.10;1.40;;;9.30;90.30;;;;;;5016174;28;20031;-69
2021/05/04 03:32:29;;;;;;;3.35;1.00;;;9.20;90.20;;;;;;4991155;28;20027;-69
2021/05/04 03:34:54;;;;;;;5.30;1.08;;;9.30;90.20;;;;;;5021821;28;20030;-69
2021/05/04 03:37:19;;;;;;;10.43;1.63;;;9.30;90.30;;;;;;5067697;28;20024;-68
2021/05/04 03:39:46;;;;;;;4.78;1.38;;;9.30;90.30;;;;;;5023162;28;20026;-69
2021/05/04 03:42:11;;;;;;;3.67;1.10;;;9.30;90.30;;;;;;4986860;28;20477;-69
2021/05/04 03:44:37;;;;;;;4.05;1.02;;;9.20;90.40;;;;;;4998638;28;20033;-69
2021/05/04 03:47:02;;;;;;;2.72;1.23;;;9.20;90.50;;;;;;4988781;28;20442;-69
2021/05/04 03:49:28;;;;;;;3.97;1.40;;;9.20;90.60;;;;;;5026017;28;20042;-69
2021/05/04 03:51:53;;;;;;;2.47;1.05;;;9.20;90.70;;;;;;4979906;28;20030;-68
2021/05/04 03:54:19;;;;;;;4.82;1.33;;;9.10;91.00;;;;;;4989560;28;20031;-69
2021/05/04 03:56:45;;;;;;;4.82;1.80;;;9.10;91.00;;;;;;5000368;28;20030;-69
2021/05/04 03:59:11;;;;;;;4.97;1.00;;;9.00;91.20;;;;;;5007387;28;20020;-69
2021/05/04 04:01:37;;;;;;;3.47;1.30;;;9.00;91.30;;;;;;4998741;28;20029;-69
2021/05/04 04:04:02;;;;;;;3.15;1.10;;;9.00;91.40;;;;;;5023971;28;20107;-69
2021/05/04 04:06:28;;;;;;;4.63;1.42;;;9.00;91.50;;;;;;5073084;28;20456;-69
2021/05/04 04:08:54;;;;;;;3.05;1.48;;;8.90;91.50;;;;;;4979293;28;20065;-70
2021/05/04 04:11:19;;;;;;;2.63;1.20;;;9.00;91.50;;;;;;4991216;28;20098;-69
2021/05/04 04:13:45;;;;;;;6.03;1.40;;;9.00;91.60;;;;;;5042197;28;20031;-69
2021/05/04 04:16:11;;;;;;;3.53;1.05;;;9.00;91.50;;;;;;4981434;28;20034;-69
2021/05/04 04:18:36;;;;;;;2.85;1.10;;;9.10;91.50;;;;;;5056730;28;20036;-69
2021/05/04 04:21:02;;;;;;;2.28;1.13;;;9.10;91.50;;;;;;5007790;28;20580;-70
2021/05/04 04:23:27;;;;;;;2.67;0.93;;;9.10;91.50;;;;;;5085742;28;20048;-70
2021/05/04 04:25:53;;;;;;;2.50;0.98;;;9.10;91.50;;;;;;5001610;28;20034;-70
2021/05/04 04:28:19;;;;;;;3.75;1.20;;;9.10;91.70;;;;;;4991668;28;20499;-69
2021/05/04 04:30:44;;;;;;;3.67;1.20;;;9.10;91.70;;;;;;4989260;28;20030;-70
2021/05/04 04:33:10;;;;;;;6.18;1.23;;;9.10;91.70;;;;;;5010314;28;20037;-70
2021/05/04 04:35:35;;;;;;;1.80;1.10;;;9.00;91.90;;;;;;4997526;28;20101;-67
2021/05/04 04:38:01;;;;;;;3.80;1.38;;;9.00;91.90;;;;;;4978114;28;20176;-67
2021/05/04 04:40:26;;;;;;;6.78;1.42;;;9.00;92.00;;;;;;4987138;28;20030;-66
2021/05/04 04:42:52;;;;;;;2.42;1.10;;;9.00;92.10;;;;;;4986947;28;20026;-67
2021/05/04 04:45:18;;;;;;;3.75;0.90;;;9.00;92.10;;;;;;4984405;28;20057;-66
2021/05/04 04:47:43;;;;;;;3.00;1.20;;;9.10;92.10;;;;;;4993028;28;20030;-67
2021/05/04 04:50:09;;;;;;;1.23;0.75;;;9.10;92.10;;;;;;5044174;28;20469;-67
2021/05/04 04:52:35;;;;;;;2.00;0.80;;;9.10;92.00;;;;;;4983265;28;20056;-67
2021/05/04 04:55:01;;;;;;;5.03;1.20;;;9.20;91.90;;;;;;4989471;28;20112;-67
2021/05/04 04:57:26;;;;;;;3.17;0.80;;;9.20;91.80;;;;;;5007711;28;20050;-67
2021/05/04 04:59:52;;;;;;;3.00;0.80;;;9.30;91.70;;;;;;5000277;28;20528;-67
2021/05/04 05:02:18;;;;;;;2.08;0.80;;;9.30;91.50;;;;;;4981088;28;20045;-67
2021/05/04 05:04:44;;;;;;;4.00;0.95;;;9.40;91.40;;;;;;5020135;28;20053;-66
2021/05/04 05:07:10;;;;;;;1.67;0.70;;;9.40;91.30;;;;;;4976108;28;20451;-66
2021/05/04 05:09:36;;;;;;;5.05;0.82;;;9.50;91.50;;;;;;4987681;28;20126;-66
2021/05/04 05:12:04;;;;;;;5.80;0.95;;;9.50;91.10;;;;;;4998337;28;20442;-66
2021/05/04 05:14:29;;;;;;;1.77;0.50;;;9.50;90.90;;;;;;5057017;28;20027;-67
2021/05/04 05:16:55;;;;;;;3.33;0.63;;;9.60;90.70;;;;;;4988737;28;20034;-67
2021/05/04 05:19:21;;;;;;;4.40;0.77;;;9.70;90.50;;;;;;4993950;28;20023;-67
2021/05/04 05:21:46;;;;;;;3.85;0.50;;;9.70;90.40;;;;;;4978834;28;20384;-67
2021/05/04 05:24:12;;;;;;;3.80;0.60;;;9.80;90.30;;;;;;4990110;28;20034;-68
2021/05/04 05:26:48;;;;;;;3.28;0.60;;;9.80;90.30;;;;;;4993347;28;20058;-71
2021/05/04 05:29:15;;;;;;;7.30;1.02;;;9.90;90.00;;;;;;4986683;28;20034;-68
2021/05/04 05:31:41;;;;;;;3.95;0.50;;;9.90;89.90;;;;;;4990080;28;20022;-68
2021/05/04 05:34:07;;;;;;;1.45;0.50;;;10.00;90.10;;;;;;5018453;28;20085;-70
2021/05/04 05:36:33;;;;;;;1.42;0.50;;;10.00;89.50;;;;;;4994372;28;20105;-70
2021/05/04 05:38:59;;;;;;;2.13;0.50;;;10.10;89.50;;;;;;4988905;28;20441;-69
2021/05/04 05:41:24;;;;;;;1.48;0.45;;;10.10;89.30;;;;;;5004690;28;20105;-69
2021/05/04 05:43:50;;;;;;;3.20;0.50;;;10.10;89.20;;;;;;4976123;28;20388;-70
2021/05/04 05:46:16;;;;;;;1.00;0.40;;;10.10;89.20;;;;;;5027120;28;20527;-70
2021/05/04 05:48:43;;;;;;;2.80;0.40;;;10.10;89.30;;;;;;5008364;28;20072;-69
2021/05/04 05:51:09;;;;;;;1.40;0.43;;;10.10;89.60;;;;;;4994144;28;20049;-67
2021/05/04 05:53:35;;;;;;;1.02;0.40;;;10.10;89.80;;;;;;4989949;28;20030;-68
2021/05/04 05:56:01;;;;;;;3.97;0.45;;;10.00;89.60;;;;;;5000800;28;20028;-68
2021/05/04 05:58:27;;;;;;;3.85;0.60;;;10.10;89.40;;;;;;5001039;28;20026;-68
2021/05/04 06:00:55;;;;;;;3.22;0.40;;;10.10;89.20;;;;;;4995337;28;20380;-68
2021/05/04 06:03:22;;;;;;;1.95;0.40;;;10.20;89.20;;;;;;4991243;28;20052;-68
2021/05/04 06:05:48;;;;;;;2.15;0.40;;;10.20;88.90;;;;;;5001738;28;20157;-67
2021/05/04 06:08:14;;;;;;;2.53;0.38;;;10.20;89.30;;;;;;4988529;28;20068;-67
2021/05/04 06:10:39;;;;;;;2.90;0.32;;;10.40;89.50;;;;;;4994899;28;20538;-68
2021/05/04 06:13:06;;;;;;;4.32;0.50;;;10.50;89.10;;;;;;4988661;28;20034;-68
2021/05/04 06:15:32;;;;;;;1.25;0.43;;;10.50;88.80;;;;;;4990801;28;20038;-69
2021/05/04 06:17:58;;;;;;;2.72;0.60;;;10.50;88.40;;;;;;4985325;28;20039;-68
2021/05/04 06:20:24;;;;;;;4.80;0.40;;;10.40;88.50;;;;;;4991394;28;20026;-71
2021/05/04 06:22:49;;;;;;;3.67;0.50;;;10.40;88.80;;;;;;4978459;28;20034;-71
2021/05/04 06:25:15;;;;;;;6.70;0.63;;;10.40;88.40;;;;;;4989879;28;20412;-70
2021/05/04 06:27:41;;;;;;;3.10;0.50;;;10.40;88.60;;;;;;4989615;28;20498;-70
2021/05/04 06:30:08;;;;;;;4.35;0.60;;;10.40;88.90;;;;;;5030398;28;20097;-69
2021/05/04 06:32:34;;;;;;;7.85;0.70;;;10.40;89.50;;;;;;4973897;28;20372;-70
2021/05/04 06:35:00;;;;;;;4.22;0.80;;;10.20;89.80;;;;;;4980455;28;20027;-70
2021/05/04 06:37:25;;;;;;;3.97;0.70;;;10.10;90.30;;;;;;4982529;28;20041;-70
2021/05/04 06:39:51;;;;;;;3.55;0.65;;;10.00;90.80;;;;;;4977653;28;20116;-70
2021/05/04 06:42:20;;;;;;;5.32;0.60;;;10.00;90.70;;;;;;4987475;28;20064;-69
2021/05/04 06:44:45;;;;;;;5.32;0.80;;;10.00;90.90;;;;;;4999969;28;20030;-70
2021/05/04 06:47:11;;;;;;;6.53;0.70;;;10.00;91.00;;;;;;4983265;28;20396;-71
2021/05/04 06:49:37;;;;;;;5.93;0.70;;;10.00;91.00;;;;;;4992094;28;20080;-71
2021/05/04 06:52:03;;;;;;;5.72;1.00;;;10.00;91.00;;;;;;4979088;28;20452;-70
2021/05/04 06:54:29;;;;;;;5.32;0.90;;;10.10;91.10;;;;;;4991436;28;20040;-70
2021/05/04 06:56:55;;;;;;;4.25;0.88;;;10.00;91.20;;;;;;4986704;28;20156;-70
2021/05/04 06:59:20;;;;;;;3.78;0.70;;;10.00;91.00;;;;;;4978051;28;20026;-70
2021/05/04 07:01:46;;;;;;;7.70;0.68;;;10.00;91.20;;;;;;4989097;28;20501;-70
2021/05/04 07:04:14;;;;;;;9.25;0.82;;;10.00;90.90;;;;;;4990755;28;20396;-70
2021/05/04 07:06:40;;;;;;;7.57;0.98;;;10.00;91.00;;;;;;4989994;28;20026;-70
2021/05/04 07:09:05;;;;;;;3.70;0.90;;;10.00;91.10;;;;;;4984682;28;20080;-70
2021/05/04 07:11:32;;;;;;;6.72;1.60;;;10.10;91.20;;;;;;4990658;28;20068;-70
2021/05/04 07:13:58;;;;;;;4.65;0.70;;;10.00;91.30;;;;;;4982220;28;20023;-70
2021/05/04 07:16:23;;;;;;;3.13;0.93;;;10.00;91.50;;;;;;4987533;28;20034;-71
2021/05/04 07:18:49;;;;;;;5.18;0.88;;;10.10;91.60;;;;;;4982582;28;20064;-70
2021/05/04 07:21:15;;;;;;;5.57;1.00;;;10.10;91.60;;;;;;5004585;28;20039;-71
2021/05/04 07:23:41;;;;;;;6.72;1.60;;;10.10;91.80;;;;;;4989224;28;20043;-70
2021/05/04 07:26:07;;;;;;;5.78;1.15;;;10.10;91.90;;;;;;4983300;28;20027;-69
2021/05/04 07:28:32;;;;;;;4.60;1.02;;;10.00;91.90;;;;;;4986334;28;20031;-70
2021/05/04 07:30:58;;;;;;;6.78;1.35;;;9.90;91.90;;;;;;4981312;28;20402;-70
2021/05/04 07:33:24;;;;;;;5.60;1.33;;;9.90;92.00;;;;;;5025964;28;20478;-70
2021/05/04 07:35:50;;;;;;;6.75;0.90;;;9.90;92.10;;;;;;5093632;28;20073;-69
2021/05/04 07:38:17;;;;;;;5.97;1.35;;;9.90;92.10;;;;;;4992122;28;20041;-71
2021/05/04 07:40:43;;;;;;;5.28;0.80;;;9.80;92.10;;;;;;4981806;28;20110;-68
2021/05/04 07:43:09;;;;;;;5.60;1.10;;;9.70;92.20;;;;;;5005849;28;20030;-69
2021/05/04 07:45:35;;;;;;;6.47;0.88;;;9.70;92.40;;;;;;4974063;28;20015;-68
2021/05/04 07:48:02;;;;;;;7.78;0.80;;;9.60;92.50;;;;;;4974232;28;20034;-68
2021/05/04 07:50:29;;;;;;;7.10;0.82;;;9.60;92.60;;;;;;4986147;28;20113;-68
2021/05/04 07:52:55;;;;;;;5.47;0.68;;;9.70;92.80;;;;;;4982517;28;20023;-68
2021/05/04 07:55:20;;;;;;;5.70;0.90;;;9.80;92.70;;;;;;4978877;28;20555;-68
2021/05/04 07:57:46;;;;;;;7.43;0.88;;;9.90;92.50;;;;;;4986270;28;20058;-68
2021/05/04 08:00:12;;;;;;;7.80;0.98;;;10.00;92.20;;;;;;4983911;28;20026;-68
2021/05/04 08:02:40;;;;;;;8.65;1.17;;;10.10;91.90;;;;;;4982954;28;20461;-69
2021/05/04 08:05:06;;;;;;;7.65;0.82;;;10.20;91.70;;;;;;4985448;28;20022;-68
2021/05/04 08:07:31;;;;;;;6.03;1.10;;;10.30;91.50;;;;;;4988162;28;20537;-69
2021/05/04 08:09:57;;;;;;;8.27;1.10;;;10.40;91.30;;;;;;4990492;28;20030;-70
2021/05/04 08:12:22;;;;;;;6.97;1.63;;;10.50;91.10;;;;;;4989525;28;20095;-70
2021/05/04 08:14:48;;;;;;;6.68;1.10;;;10.70;91.10;;;;;;4999339;28;20033;-70
2021/05/04 08:17:17;;;;;;;9.05;2.03;;;10.80;90.40;;;;;;4990044;28;20039;-71
2021/05/04 08:19:42;;;;;;;6.78;1.70;;;11.00;90.10;;;;;;4985180;28;20022;-70
2021/05/04 08:22:08;;;;;;;7.47;1.15;;;11.10;89.60;;;;;;4982318;28;20057;-71
2021/05/04 08:24:34;;;;;;;9.00;1.10;;;11.20;88.50;;;;;;4981454;28;20023;-69
2021/05/04 08:27:00;;;;;;;12.40;2.08;;;11.30;87.60;;;;;;4978231;28;20113;-70
2021/05/04 08:29:25;;;;;;;13.30;1.88;;;11.40;87.00;;;;;;4979714;28;20030;-70
2021/05/04 08:31:51;;;;;;;9.02;1.15;;;11.50;85.00;;;;;;4980731;28;20087;-67
2021/05/04 08:34:16;;;;;;;11.02;1.35;;;11.50;85.40;;;;;;4991679;28;20030;-68
2021/05/04 08:36:42;;;;;;;9.57;2.30;;;11.50;86.70;;;;;;4992534;28;20023;-69
2021/05/04 08:39:07;;;;;;;11.88;1.70;;;11.50;86.10;;;;;;4982396;28;20503;-67
2021/05/04 08:41:34;;;;;;;12.30;1.80;;;11.60;86.10;;;;;;4977864;28;20030;-69
2021/05/04 08:44:00;;;;;;;9.57;2.00;;;11.50;85.60;;;;;;4994706;28;20033;-68
2021/05/04 08:46:26;;;;;;;6.75;1.35;;;11.50;85.60;;;;;;4987586;28;20476;-69
2021/05/04 08:48:52;;;;;;;5.88;1.27;;;11.50;85.80;;;;;;4991530;28;20027;-68
2021/05/04 08:51:18;;;;;;;10.88;1.67;;;11.40;86.30;;;;;;4977498;28;20132;-68
2021/05/04 08:53:44;;;;;;;6.45;1.20;;;11.10;87.60;;;;;;4986209;28;20471;-68
2021/05/04 08:56:14;;;;;;;5.53;1.42;;;10.90;89.60;;;;;;4992104;28;20030;-69
2021/05/04 08:58:41;;;;;;;7.25;1.20;;;10.80;90.30;;;;;;4981148;28;20023;-69
2021/05/04 09:01:06;;;;;;;8.65;1.25;;;10.80;90.40;;;;;;4986268;28;20026;-69
2021/05/04 09:03:39;;;;;;;6.80;0.70;;;10.70;90.30;;;;;;4992242;28;20388;-69
2021/05/04 09:06:09;;;;;;;7.72;0.73;;;10.70;90.40;;;;;;5002612;28;20027;-69
2021/05/04 09:11:21;;;;;;;7.70;1.05;;;11.20;90.10;;;;;;4989709;28;20064;-70
2021/05/04 09:13:52;;;;;;;7.82;1.10;;;11.50;88.50;;;;;;4987293;28;20061;-71
2021/05/04 09:16:28;;;;;;;5.60;0.70;;;11.50;87.40;;;;;;4987229;28;20450;-70
2021/05/04 09:19:09;;;;;;;6.28;0.80;;;11.50;87.00;;;;;;4990524;28;20380;-71
2021/05/04 09:21:40;;;;;;;5.43;0.75;;;11.40;86.50;;;;;;5059553;28;20475;-70
2021/05/04 09:24:25;;;;;;;8.52;0.85;;;11.10;87.60;;;;;;4987254;28;20045;-72
2021/05/04 09:27:22;;;;;;;7.65;1.30;;;11.10;88.50;;;;;;4981503;28;20485;-70
2021/05/04 09:29:57;;;;;;;6.65;0.90;;;11.10;89.00;;;;;;4977378;28;20035;-70
2021/05/04 09:32:29;;;;;;;7.18;1.20;;;11.10;89.30;;;;;;4988730;28;20022;-70
2021/05/04 09:35:00;;;;;;;6.97;1.20;;;11.20;89.60;;;;;;4990941;28;20018;-71
2021/05/04 09:37:27;;;;;;;6.10;1.05;;;11.40;88.50;;;;;;4984339;28;20121;-70
2021/05/04 09:39:54;;;;;;;8.25;0.63;;;11.60;88.30;;;;;;4988212;28;20388;-70
2021/05/04 09:42:19;;;;;;;6.72;1.05;;;11.80;83.50;;;;;;4992166;28;20022;-70
2021/05/04 09:44:49;;;;;;;8.05;0.85;;;11.80;82.20;;;;;;4985250;28;20018;-71
2021/05/04 09:47:26;;;;;;;11.07;1.00;;;11.80;83.20;;;;;;4983296;28;20488;-71
2021/05/04 09:49:55;;;;;;;5.43;1.13;;;11.50;83.70;;;;;;4978909;28;20395;-71
2021/05/04 09:52:49;;;;;;;8.68;0.98;;;11.00;86.00;;;;;;4988758;28;20027;-69
2021/05/04 09:55:19;;;;;;;9.07;1.17;;;10.70;87.40;;;;;;4982716;28;20030;-69
2021/05/04 09:57:49;;;;;;;6.72;1.10;;;10.50;88.90;;;;;;4984501;28;20018;-69
2021/05/04 10:00:21;;;;;;;4.38;0.70;;;10.40;89.50;;;;;;4975794;28;20019;-69
2021/05/04 10:02:50;;;;;;;11.15;1.00;;;10.50;89.90;;;;;;4986538;28;20034;-70
2021/05/04 10:05:18;;;;;;;6.20;0.75;;;10.60;90.10;;;;;;4986219;28;20058;-70
2021/05/04 10:07:47;;;;;;;8.38;1.20;;;10.80;89.90;;;;;;4973264;28;20469;-68
2021/05/04 10:10:15;;;;;;;10.57;1.00;;;10.80;88.60;;;;;;4977959;28;20163;-67
2021/05/04 10:12:43;;;;;;;9.73;0.93;;;10.90;87.30;;;;;;4992230;28;20022;-68
2021/05/04 10:15:11;;;;;;;8.20;0.85;;;10.80;86.80;;;;;;4984208;28;20762;-70
2021/05/04 10:17:39;;;;;;;8.55;0.80;;;10.60;86.30;;;;;;4986473;28;20034;-68
2021/05/04 10:20:09;;;;;;;4.65;0.57;;;9.90;86.10;;;;;;4992458;28;20062;-69
2021/05/04 10:22:36;;;;;;;5.85;0.60;;;9.30;87.60;;;;;;4982731;28;20041;-69
2021/05/04 10:25:09;;;;;;;7.47;1.00;;;9.00;89.20;;;;;;4979332;28;20500;-69
2021/05/04 10:27:36;;;;;;;8.07;0.63;;;8.80;90.50;;;;;;4984092;28;20030;-70
2021/05/04 10:30:04;;;;;;;5.75;0.30;;;8.80;90.60;;;;;;4982615;28;20026;-72
2021/05/04 10:32:49;;;;;;;7.05;0.82;;;8.70;90.40;;;;;;4980490;28;20721;-70
2021/05/04 10:35:31;;;;;;;5.13;0.32;;;8.60;89.70;;;;;;4986373;28;20434;-68
2021/05/04 10:38:03;;;;;;;3.30;0.32;;;8.60;90.20;;;;;;4991895;28;20030;-68
2021/05/04 10:40:31;;;;;;;6.93;0.55;;;8.80;90.80;;;;;;4978475;28;20118;-68
2021/05/04 10:42:58;;;;;;;8.18;0.68;;;9.30;90.70;;;;;;4973870;28;20114;-68
2021/05/04 10:45:42;;;;;;;3.60;0.35;;;9.70;90.30;;;;;;5008296;28;20394;-69
2021/05/04 10:48:09;;;;;;;5.65;0.55;;;10.20;88.30;;;;;;4984417;28;20114;-68
2021/05/04 10:50:51;;;;;;;5.38;0.35;;;10.40;85.30;;;;;;4984584;28;20072;-67
2021/05/04 10:53:19;;;;;;;5.43;0.40;;;10.60;83.90;;;;;;4972548;28;20023;-68
2021/05/04 10:55:54;;;;;;;3.97;0.30;;;10.70;81.70;;;;;;4980387;28;20392;-67
2021/05/04 10:58:29;;;;;;;8.27;0.45;;;10.80;81.20;;;;;;4985156;28;20091;-68
2021/05/04 11:01:01;;;;;;;3.72;0.40;;;11.00;80.10;;;;;;4989081;28;20350;-69
2021/05/04 11:03:32;;;;;;;5.93;0.40;;;11.10;78.50;;;;;;4989042;28;20030;-69
2021/05/04 11:06:02;;;;;;;5.82;0.40;;;11.20;78.50;;;;;;4974564;28;20026;-68
2021/05/04 11:08:47;;;;;;;4.68;0.70;;;11.20;77.20;;;;;;4972800;28;20026;-69
2021/05/04 11:11:22;;;;;;;2.38;0.65;;;11.10;77.30;;;;;;4991444;28;20060;-68
2021/05/04 11:13:57;;;;;;;1.48;0.20;;;11.00;77.70;;;;;;4975279;28;20097;-70
2021/05/04 11:16:47;;;;;;;3.85;0.38;;;11.10;75.10;;;;;;4998492;28;20480;-70
2021/05/04 11:19:33;;;;;;;6.80;0.40;;;11.00;74.30;;;;;;4988205;28;20062;-69
2021/05/04 11:22:04;;;;;;;1.50;0.30;;;10.90;75.00;;;;;;5004610;28;20179;-69
2021/05/04 11:24:30;;;;;;;3.90;0.70;;;10.50;78.80;;;;;;4973913;28;20037;-71
2021/05/04 11:27:09;;;;;;;6.00;0.40;;;9.80;81.30;;;;;;5006723;28;20384;-71
2021/05/04 11:29:34;;;;;;;3.85;0.40;;;9.40;84.10;;;;;;4982539;28;20387;-72
2021/05/04 11:32:27;;;;;;;3.83;0.40;;;9.30;85.10;;;;;;4972292;28;20102;-70
2021/05/04 11:34:59;;;;;;;3.25;0.40;;;9.40;85.70;;;;;;5040648;28;20392;-72
2021/05/04 11:37:28;;;;;;;2.25;0.20;;;9.50;84.50;;;;;;5011021;28;20397;-71
2021/05/04 11:39:58;;;;;;;3.38;0.50;;;9.90;85.10;;;;;;5009484;28;20045;-70
2021/05/04 11:42:49;;;;;;;3.58;0.40;;;10.30;85.10;;;;;;4974410;28;20023;-70
2021/05/04 11:45:21;;;;;;;4.70;0.47;;;10.80;83.00;;;;;;4971565;28;20050;-70
2021/05/04 11:47:49;;;;;;;2.90;0.30;;;11.20;82.40;;;;;;4976468;28;20031;-70
2021/05/04 11:50:19;;;;;;;3.58;0.82;;;11.40;79.50;;;;;;4983362;28;20145;-70
2021/05/04 11:52:57;;;;;;;4.38;0.30;;;11.30;76.90;;;;;;4976483;28;20030;-70
2021/05/04 11:55:42;;;;;;;1.77;0.30;;;11.20;74.80;;;;;;4987690;28;20034;-70
2021/05/04 11:58:17;;;;;;;3.60;0.20;;;11.10;74.50;;;;;;4975391;28;20038;-70
2021/05/04 12:00:43;;;;;;;5.70;0.20;;;11.00;73.70;;;;;;4988027;28;20030;-70
2021/05/04 12:03:14;;;;;;;4.03;0.30;;;10.90;73.60;;;;;;4982290;28;20031;-70
2021/05/04 12:05:42;;;;;;;1.88;0.20;;;10.90;72.80;;;;;;4980785;28;20034;-70
2021/05/04 12:08:08;;;;;;;1.35;0.20;;;10.80;72.90;;;;;;4987599;28;20031;-70
2021/05/04 12:10:37;;;;;;;4.40;0.30;;;10.70;73.20;;;;;;5005286;28;20024;-69
2021/05/04 12:13:12;;;;;;;6.32;0.80;;;10.60;73.90;;;;;;4981368;28;20105;-70
2021/05/04 12:15:41;;;;;;;3.97;0.30;;;10.60;75.70;;;;;;4983957;28;20046;-71
2021/05/04 12:18:12;;;;;;;3.80;0.30;;;11.00;73.80;;;;;;4984986;28;20022;-71
2021/05/04 12:20:40;;;;;;;5.15;0.38;;;11.40;71.80;;;;;;5002964;28;20037;-70
2021/05/04 12:23:07;;;;;;;2.60;0.22;;;11.50;69.90;;;;;;4984889;28;20049;-71
2021/05/04 12:25:41;;;;;;;2.75;0.28;;;11.50;68.90;;;;;;4986535;28;20152;-70
2021/05/04 12:28:14;;;;;;;4.45;0.20;;;11.40;69.20;;;;;;5007268;28;20483;-70
2021/05/04 12:30:40;;;;;;;2.60;0.25;;;11.30;69.60;;;;;;5002198;28;20396;-70
2021/05/04 12:33:06;;;;;;;3.13;0.22;;;11.30;69.80;;;;;;4981968;28;20038;-71
2021/05/04 12:35:37;;;;;;;1.70;0.20;;;11.30;69.20;;;;;;5057321;28;20424;-70
2021/05/04 12:38:23;;;;;;;3.42;0.22;;;11.20;68.50;;;;;;5010415;28;20039;-70
2021/05/04 12:41:12;;;;;;;1.20;0.20;;;11.10;69.70;;;;;;5000813;28;20030;-70
2021/05/04 12:43:41;;;;;;;15.32;2.58;;;11.00;70.50;;;;;;5038934;28;20027;-69
2021/05/04 12:46:17;;;;;;;4.45;0.20;;;11.10;70.90;;;;;;4990331;28;20019;-70
2021/05/04 12:48:44;;;;;;;0.93;0.20;;;11.20;71.60;;;;;;4993043;28;20105;-69
2021/05/04 12:51:15;;;;;;;3.70;0.40;;;11.40;70.50;;;;;;4988853;28;20034;-70
2021/05/04 12:53:45;;;;;;;1.10;0.20;;;11.70;70.60;;;;;;4990261;28;20023;-71
2021/05/04 12:56:18;;;;;;;2.60;0.30;;;11.90;68.90;;;;;;4979782;28;20396;-71